createdAt,value
2022-12-23T00:01:02.208Z,0.90
2022-12-23T00:03:29.895Z,1.30
2022-12-23T00:05:57.936Z,1.30
2022-12-23T00:08:25.352Z,1.40
2022-12-23T00:10:52.673Z,1.27
2022-12-23T00:13:38.345Z,1.38
2022-12-23T00:16:12.691Z,1.48
2022-12-23T00:18:40.172Z,1.60
2022-12-23T00:21:10.370Z,1.38
2022-12-23T00:23:39.255Z,1.40
2022-12-23T00:26:06.621Z,1.38
2022-12-23T00:28:33.907Z,1.30
2022-12-23T00:31:06.100Z,1.30
2022-12-23T00:33:34.956Z,1.20
2022-12-23T00:36:02.251Z,1.23
2022-12-23T00:38:47.858Z,1.50
2022-12-23T00:41:35.446Z,1.30
2022-12-23T00:44:03.397Z,1.60
2022-12-23T00:46:30.774Z,1.83
2022-12-23T00:49:16.340Z,1.30
2022-12-23T00:51:43.547Z,2.05
2022-12-23T00:54:10.794Z,1.50
2022-12-23T00:56:38.005Z,1.75
2022-12-23T00:59:05.198Z,1.67
2022-12-23T01:01:51.342Z,1.88
2022-12-23T01:04:37.134Z,1.40
2022-12-23T01:07:04.551Z,1.40
2022-12-23T01:09:31.833Z,1.42
2022-12-23T01:11:59.101Z,2.08
2022-12-23T01:14:26.387Z,1.23
2022-12-23T01:16:53.585Z,1.33
2022-12-23T01:19:20.813Z,1.45
2022-12-23T01:21:48.076Z,1.30
2022-12-23T01:24:15.289Z,1.17
2022-12-23T01:26:42.535Z,1.55
2022-12-23T01:29:09.720Z,1.20
2022-12-23T01:31:36.990Z,1.20
2022-12-23T01:34:04.246Z,1.20
2022-12-23T01:36:31.632Z,1.05
2022-12-23T01:38:58.854Z,1.20
2022-12-23T01:41:46.759Z,1.10
2022-12-23T01:44:49.822Z,1.30
2022-12-23T01:47:18.760Z,0.80
2022-12-23T01:49:45.943Z,1.10
2022-12-23T01:52:13.131Z,1.20
2022-12-23T01:54:40.427Z,1.10
2022-12-23T01:57:07.636Z,1.10
2022-12-23T01:59:53.305Z,0.95
2022-12-23T02:02:38.918Z,1.20
2022-12-23T02:05:06.352Z,1.20
2022-12-23T02:07:52.406Z,1.30
2022-12-23T02:10:19.862Z,1.23
2022-12-23T02:12:56.239Z,1.00
2022-12-23T02:15:53.020Z,1.10
2022-12-23T02:19:04.876Z,1.00
2022-12-23T02:21:38.215Z,1.00
2022-12-23T02:24:29.960Z,1.20
2022-12-23T02:27:22.697Z,1.08
2022-12-23T02:30:27.659Z,0.70
2022-12-23T02:33:09.946Z,0.70
2022-12-23T02:35:39.953Z,0.70
2022-12-23T02:38:10.942Z,0.80
2022-12-23T02:40:43.345Z,0.70
2022-12-23T02:43:15.446Z,0.77
2022-12-23T02:45:53.907Z,0.80
2022-12-23T02:48:45.853Z,0.65
2022-12-23T02:51:14.461Z,0.70
2022-12-23T02:53:51.212Z,0.60
2022-12-23T02:56:18.883Z,0.63
2022-12-23T02:59:06.852Z,0.63
2022-12-23T03:01:34.248Z,0.70
2022-12-23T03:04:01.635Z,0.80
2022-12-23T03:06:32.029Z,0.90
2022-12-23T03:08:59.825Z,0.70
2022-12-23T03:11:50.328Z,0.60
2022-12-23T03:14:22.958Z,0.70
2022-12-23T03:17:17.880Z,1.20
2022-12-23T03:20:00.297Z,0.50
2022-12-23T03:22:46.098Z,0.60
2022-12-23T03:25:25.901Z,0.70
2022-12-23T03:27:59.496Z,0.88
2022-12-23T03:30:26.685Z,0.70
2022-12-23T03:32:55.830Z,0.70
2022-12-23T03:35:29.043Z,0.80
2022-12-23T03:37:56.224Z,0.70
2022-12-23T03:40:28.271Z,0.70
2022-12-23T03:43:01.283Z,0.70
2022-12-23T03:45:39.922Z,0.50
2022-12-23T03:48:35.418Z,0.57
2022-12-23T03:51:11.510Z,0.60
2022-12-23T03:53:42.143Z,0.60
2022-12-23T03:56:14.653Z,0.60
2022-12-23T03:58:47.879Z,0.68
2022-12-23T04:01:46.070Z,0.50
2022-12-23T04:04:21.146Z,0.60
2022-12-23T04:07:13.684Z,0.77
2022-12-23T04:09:40.931Z,0.63
2022-12-23T04:12:08.240Z,0.70
2022-12-23T04:14:35.817Z,0.60
2022-12-23T04:17:03.017Z,0.57
2022-12-23T04:19:30.191Z,0.60
2022-12-23T04:21:57.888Z,0.80
2022-12-23T04:24:25.089Z,0.50
2022-12-23T04:26:52.371Z,0.60
2022-12-23T04:29:19.575Z,0.77
2022-12-23T04:31:46.854Z,0.50
2022-12-23T04:34:14.117Z,0.50
2022-12-23T04:36:41.290Z,0.55
2022-12-23T04:39:09.482Z,0.50
2022-12-23T04:41:36.692Z,0.50
2022-12-23T04:44:03.992Z,0.60
2022-12-23T04:46:31.211Z,0.60
2022-12-23T04:48:58.479Z,0.52
2022-12-23T04:51:25.693Z,1.98
2022-12-23T04:53:52.907Z,1.20
2022-12-23T04:56:20.097Z,1.00
2022-12-23T04:58:47.343Z,0.68
2022-12-23T05:01:14.626Z,0.47
2022-12-23T05:03:41.885Z,0.70
2022-12-23T05:06:09.140Z,0.60
2022-12-23T05:08:36.456Z,0.40
2022-12-23T05:11:03.819Z,0.73
2022-12-23T05:13:31.069Z,0.80
2022-12-23T05:15:58.326Z,0.95
2022-12-23T05:18:25.608Z,0.70
2022-12-23T05:20:52.914Z,0.80
2022-12-23T05:23:20.105Z,0.55
2022-12-23T05:25:51.903Z,0.60
2022-12-23T05:28:19.514Z,0.60
2022-12-23T05:30:46.699Z,0.50
2022-12-23T05:33:14.289Z,0.50
2022-12-23T05:35:41.540Z,0.50
2022-12-23T05:38:08.774Z,0.73
2022-12-23T05:40:36.027Z,0.70
2022-12-23T05:43:03.404Z,0.88
2022-12-23T05:45:30.620Z,0.88
2022-12-23T05:47:57.918Z,0.60
2022-12-23T05:50:25.092Z,0.65
2022-12-23T05:52:52.377Z,0.70
2022-12-23T05:55:19.553Z,0.50
2022-12-23T05:57:46.750Z,0.60
2022-12-23T06:00:15.146Z,0.70
2022-12-23T06:02:43.667Z,0.55
2022-12-23T06:05:13.367Z,0.60
2022-12-23T06:07:40.588Z,0.52
2022-12-23T06:10:08.898Z,0.50
2022-12-23T06:12:36.232Z,0.50
2022-12-23T06:15:04.342Z,0.57
2022-12-23T06:17:31.645Z,0.40
2022-12-23T06:19:58.858Z,0.60
2022-12-23T06:22:26.240Z,0.50
2022-12-23T06:24:53.501Z,0.50
2022-12-23T06:27:20.742Z,0.60
2022-12-23T06:29:48.135Z,0.40
2022-12-23T06:32:15.346Z,0.52
2022-12-23T06:34:42.573Z,0.50
2022-12-23T06:37:09.782Z,0.52
2022-12-23T06:39:36.976Z,0.57
2022-12-23T06:42:04.220Z,0.60
2022-12-23T06:44:31.578Z,0.60
2022-12-23T06:46:58.803Z,0.60
2022-12-23T06:49:26.278Z,0.60
2022-12-23T06:51:53.472Z,0.50
2022-12-23T06:54:20.670Z,0.82
2022-12-23T06:56:47.908Z,0.50
2022-12-23T06:59:15.163Z,0.60
2022-12-23T07:01:42.521Z,0.50
2022-12-23T07:04:10.273Z,0.45
2022-12-23T07:06:39.129Z,0.60
2022-12-23T07:09:07.263Z,0.50
2022-12-23T07:11:34.725Z,0.50
2022-12-23T07:14:01.925Z,0.50
2022-12-23T07:16:29.150Z,0.68
2022-12-23T07:18:56.455Z,0.57
2022-12-23T07:21:29.020Z,0.60
2022-12-23T07:23:57.167Z,0.50
2022-12-23T07:26:24.628Z,0.80
2022-12-23T07:28:51.860Z,0.50
2022-12-23T07:31:19.147Z,0.60
2022-12-23T07:33:46.504Z,0.50
2022-12-23T07:36:13.725Z,0.60
2022-12-23T07:38:40.916Z,0.60
2022-12-23T07:41:08.342Z,0.50
2022-12-23T07:43:35.638Z,0.40
2022-12-23T07:46:07.543Z,0.50
2022-12-23T07:48:34.889Z,0.55
2022-12-23T07:51:02.826Z,0.40
2022-12-23T07:53:30.151Z,0.45
2022-12-23T07:55:57.472Z,0.50
2022-12-23T07:58:25.017Z,0.60
2022-12-23T08:00:59.515Z,0.70
2022-12-23T08:03:26.837Z,0.50
2022-12-23T08:06:01.436Z,0.60
2022-12-23T08:08:28.631Z,0.50
2022-12-23T08:11:00.214Z,0.60
2022-12-23T08:13:27.568Z,0.50
2022-12-23T08:15:58.545Z,0.57
2022-12-23T08:18:25.947Z,0.70
2022-12-23T08:21:01.051Z,0.70
2022-12-23T08:23:28.860Z,0.60
2022-12-23T08:26:12.889Z,0.55
2022-12-23T08:28:40.640Z,0.60
2022-12-23T08:31:10.001Z,0.52
2022-12-23T08:33:38.176Z,0.40
2022-12-23T08:36:06.646Z,0.40
2022-12-23T08:38:34.092Z,0.50
2022-12-23T08:41:01.595Z,0.50
2022-12-23T08:43:35.233Z,0.70
2022-12-23T08:46:03.442Z,0.60
2022-12-23T08:48:31.100Z,0.80
2022-12-23T08:51:05.161Z,0.50
2022-12-23T08:53:33.300Z,0.50
2022-12-23T08:56:08.219Z,0.60
2022-12-23T08:58:39.941Z,0.77
2022-12-23T09:01:08.099Z,0.50
2022-12-23T09:03:35.669Z,0.52
2022-12-23T09:06:06.985Z,0.50
2022-12-23T09:08:34.277Z,0.43
2022-12-23T09:11:01.699Z,0.65
2022-12-23T09:13:35.230Z,0.50
2022-12-23T09:16:03.908Z,0.52
2022-12-23T09:18:31.301Z,0.60
2022-12-23T09:21:03.089Z,0.60
2022-12-23T09:23:30.298Z,0.70
2022-12-23T09:25:57.561Z,0.57
2022-12-23T09:28:24.880Z,0.63
2022-12-23T09:30:52.264Z,0.63
2022-12-23T09:33:19.814Z,0.60
2022-12-23T09:35:47.053Z,1.20
2022-12-23T09:38:14.225Z,0.90
2022-12-23T09:40:41.507Z,1.00
2022-12-23T09:43:17.831Z,0.95
2022-12-23T09:45:51.199Z,0.90
2022-12-23T09:48:20.710Z,0.70
2022-12-23T09:50:47.907Z,0.98
2022-12-23T09:53:20.051Z,0.70
2022-12-23T09:56:22.784Z,1.05
2022-12-23T09:59:16.281Z,0.85
2022-12-23T10:01:55.212Z,1.00
2022-12-23T10:04:29.184Z,1.00
2022-12-23T10:07:05.123Z,0.82
2022-12-23T10:09:34.468Z,0.98
2022-12-23T10:12:01.660Z,0.93
2022-12-23T10:14:30.008Z,0.98
2022-12-23T10:17:16.225Z,0.90
2022-12-23T10:19:44.495Z,0.80
2022-12-23T10:22:23.262Z,1.02
2022-12-23T10:24:50.538Z,1.02
2022-12-23T10:27:26.833Z,1.17
2022-12-23T10:29:54.054Z,0.68
2022-12-23T10:32:24.186Z,0.68
2022-12-23T10:34:53.022Z,0.88
2022-12-23T10:37:39.125Z,1.10
2022-12-23T10:40:34.045Z,1.00
2022-12-23T10:43:29.312Z,0.65
2022-12-23T10:46:21.224Z,0.90
2022-12-23T10:49:05.382Z,0.90
2022-12-23T10:51:34.455Z,0.80
2022-12-23T10:54:11.867Z,1.27
2022-12-23T10:56:39.153Z,1.05
2022-12-23T10:59:06.918Z,1.10
2022-12-23T11:01:40.807Z,1.45
2022-12-23T11:04:13.294Z,1.52
2022-12-23T11:06:43.013Z,1.30
2022-12-23T11:09:24.298Z,1.15
2022-12-23T11:11:55.530Z,1.02
2022-12-23T11:14:52.680Z,0.70
2022-12-23T11:17:33.387Z,0.70
2022-12-23T11:20:12.052Z,0.70
2022-12-23T11:22:56.352Z,0.90
2022-12-23T11:25:37.939Z,1.43
2022-12-23T11:28:16.860Z,0.70
2022-12-23T11:30:55.445Z,0.90
2022-12-23T11:33:31.393Z,0.70
2022-12-23T11:36:05.093Z,0.82
2022-12-23T11:38:32.429Z,0.98
2022-12-23T11:40:59.670Z,0.70
2022-12-23T11:43:26.928Z,0.80
2022-12-23T11:46:13.851Z,1.05
2022-12-23T11:48:41.093Z,0.95
2022-12-23T11:51:08.484Z,0.80
2022-12-23T11:53:36.614Z,1.00
2022-12-23T11:56:13.411Z,0.60
2022-12-23T11:58:46.605Z,0.90
2022-12-23T12:01:20.156Z,1.05
2022-12-23T12:03:54.031Z,2.38
2022-12-23T12:06:21.304Z,0.80
2022-12-23T12:08:50.330Z,0.90
2022-12-23T12:11:19.091Z,0.60
2022-12-23T12:13:48.861Z,0.80
2022-12-23T12:16:31.327Z,0.63
2022-12-23T12:19:11.295Z,1.10
2022-12-23T12:21:38.837Z,0.90
2022-12-23T12:24:21.683Z,0.57
2022-12-23T12:26:53.532Z,0.77
2022-12-23T12:29:36.649Z,0.70
2022-12-23T12:32:04.068Z,0.55
2022-12-23T12:34:57.069Z,0.50
2022-12-23T12:37:29.792Z,0.47
2022-12-23T12:40:12.472Z,0.43
2022-12-23T12:42:44.503Z,0.75
2022-12-23T12:45:46.004Z,0.82
2022-12-23T12:48:28.193Z,0.50
2022-12-23T12:51:03.155Z,0.55
2022-12-23T12:53:30.433Z,0.55
2022-12-23T12:56:05.120Z,0.50
2022-12-23T12:58:32.303Z,1.00
2022-12-23T13:01:27.815Z,0.90
2022-12-23T13:06:58.804Z,0.55
2022-12-23T13:12:22.995Z,0.70
2022-12-23T13:15:12.228Z,1.00
2022-12-23T13:18:08.032Z,0.90
2022-12-23T13:20:41.725Z,0.98
2022-12-23T13:26:23.883Z,0.90
2022-12-23T13:29:00.570Z,0.80
2022-12-23T13:31:38.163Z,0.90
2022-12-23T13:34:34.544Z,0.73
2022-12-23T13:37:25.872Z,0.60
2022-12-23T13:40:01.979Z,0.77
2022-12-23T13:42:34.340Z,0.88
2022-12-23T13:45:01.545Z,0.90
2022-12-23T13:47:44.025Z,1.00
2022-12-23T13:50:38.746Z,0.80
2022-12-23T13:53:35.008Z,1.10
2022-12-23T13:56:15.113Z,0.95
2022-12-23T13:58:42.370Z,0.90
2022-12-23T14:01:10.646Z,0.70
2022-12-23T14:03:38.742Z,1.00
2022-12-23T14:06:31.976Z,0.80
2022-12-23T14:08:59.213Z,1.10
2022-12-23T14:11:33.104Z,1.10
2022-12-23T14:14:04.344Z,1.30
2022-12-23T14:16:37.553Z,1.10
2022-12-23T14:19:32.443Z,1.00
2022-12-23T14:22:17.170Z,1.10
2022-12-23T14:25:22.607Z,1.10
2022-12-23T14:27:49.870Z,1.10
2022-12-23T14:30:34.688Z,1.10
2022-12-23T14:33:03.509Z,0.85
2022-12-23T14:35:40.356Z,1.10
2022-12-23T14:38:30.890Z,1.48
2022-12-23T14:41:24.903Z,1.02
2022-12-23T14:43:56.072Z,1.08
2022-12-23T14:46:35.676Z,0.90
2022-12-23T14:49:37.412Z,0.70
2022-12-23T14:51:50.895Z,0.82
2022-12-23T14:54:18.753Z,0.90
2022-12-23T14:57:00.461Z,1.08
2022-12-23T14:59:36.381Z,1.00
2022-12-23T15:02:34.169Z,1.08
2022-12-23T15:05:01.510Z,1.15
2022-12-23T15:07:40.557Z,1.30
2022-12-23T15:10:15.568Z,1.05
2022-12-23T15:12:43.784Z,1.20
2022-12-23T15:15:22.706Z,1.30
2022-12-23T15:18:00.228Z,1.10
2022-12-23T15:20:27.583Z,0.95
2022-12-23T15:22:59.900Z,1.10
2022-12-23T15:25:32.176Z,1.00
2022-12-23T15:28:02.163Z,1.10
2022-12-23T15:30:35.045Z,1.20
2022-12-23T15:33:03.832Z,0.82
2022-12-23T15:35:32.861Z,1.00
2022-12-23T15:38:00.591Z,1.17
2022-12-23T15:40:37.952Z,1.05
2022-12-23T15:43:23.968Z,1.05
2022-12-23T15:45:51.319Z,0.90
2022-12-23T15:48:25.884Z,1.20
2022-12-23T15:51:57.909Z,1.13
2022-12-23T15:54:27.206Z,1.00
2022-12-23T15:56:54.446Z,1.00
2022-12-23T15:59:29.412Z,1.23
2022-12-23T16:01:56.718Z,1.20
2022-12-23T16:04:28.183Z,1.17
2022-12-23T16:06:55.473Z,1.10
2022-12-23T16:09:25.979Z,1.05
2022-12-23T16:12:21.362Z,1.10
2022-12-23T16:14:56.287Z,1.00
2022-12-23T16:17:34.172Z,1.17
2022-12-23T16:20:19.958Z,1.00
2022-12-23T16:22:50.297Z,0.93
2022-12-23T16:25:21.194Z,0.90
2022-12-23T16:27:50.421Z,1.20
2022-12-23T16:30:20.203Z,1.00
2022-12-23T16:32:51.341Z,0.90
2022-12-23T16:35:40.646Z,0.80
2022-12-23T16:38:14.094Z,0.95
2022-12-23T16:40:41.794Z,1.00
2022-12-23T16:43:09.016Z,1.00
2022-12-23T16:45:36.423Z,0.88
2022-12-23T16:48:15.767Z,0.70
2022-12-23T16:50:42.962Z,0.93
2022-12-23T16:53:15.703Z,0.77
2022-12-23T16:55:50.221Z,0.80
2022-12-23T16:58:20.175Z,0.80
2022-12-23T17:00:47.375Z,0.90
2022-12-23T17:03:18.792Z,1.00
2022-12-23T17:05:46.927Z,0.70
2022-12-23T17:08:14.300Z,1.10
2022-12-23T17:10:41.585Z,0.90
2022-12-23T17:13:13.141Z,0.82
2022-12-23T17:15:40.326Z,0.95
2022-12-23T17:18:12.575Z,2.30
2022-12-23T17:20:40.501Z,1.17
2022-12-23T17:23:09.107Z,0.80
2022-12-23T17:25:36.349Z,1.00
2022-12-23T17:28:06.033Z,1.55
2022-12-23T17:30:33.459Z,0.90
2022-12-23T17:33:00.671Z,0.75
2022-12-23T17:35:27.868Z,1.15
2022-12-23T17:37:55.045Z,1.60
2022-12-23T17:40:22.299Z,1.60
2022-12-23T17:42:49.560Z,1.02
2022-12-23T17:45:25.208Z,1.30
2022-12-23T17:47:52.519Z,1.30
2022-12-23T17:50:20.685Z,2.50
2022-12-23T17:52:47.945Z,0.90
2022-12-23T17:55:23.081Z,1.10
2022-12-23T17:57:50.492Z,1.00
2022-12-23T18:00:26.530Z,1.60
2022-12-23T18:02:58.853Z,1.00
2022-12-23T18:05:26.916Z,1.50
2022-12-23T18:07:54.806Z,1.00
2022-12-23T18:10:23.861Z,1.70
2022-12-23T18:12:56.059Z,0.90
2022-12-23T18:15:24.856Z,0.80
2022-12-23T18:17:52.428Z,1.00
2022-12-23T18:20:21.848Z,0.88
2022-12-23T18:22:50.567Z,0.70
2022-12-23T18:25:23.212Z,2.20
2022-12-23T18:27:51.207Z,1.90
2022-12-23T18:30:18.571Z,4.60
2022-12-23T18:32:45.920Z,1.63
2022-12-23T18:35:26.506Z,1.70
2022-12-23T18:37:53.886Z,0.90
2022-12-23T18:40:21.370Z,1.15
2022-12-23T18:42:48.593Z,1.00
2022-12-23T18:45:26.495Z,1.30
2022-12-23T18:47:53.899Z,1.75
2022-12-23T18:50:21.197Z,2.22
2022-12-23T18:52:48.649Z,1.17
2022-12-23T18:55:15.868Z,0.88
2022-12-23T18:57:43.067Z,0.93
2022-12-23T19:00:18.735Z,1.17
2022-12-23T19:02:46.126Z,0.95
2022-12-23T19:05:24.174Z,1.55
2022-12-23T19:07:51.909Z,1.67
2022-12-23T19:10:24.322Z,1.45
2022-12-23T19:12:51.600Z,0.90
2022-12-23T19:15:19.256Z,0.90
2022-12-23T19:17:46.676Z,0.90
2022-12-23T19:20:14.912Z,1.40
2022-12-23T19:22:42.113Z,1.10
2022-12-23T19:25:10.191Z,0.90
2022-12-23T19:27:38.989Z,0.80
2022-12-23T19:30:07.541Z,0.90
2022-12-23T19:32:34.801Z,0.88
2022-12-23T19:35:02.127Z,1.00
2022-12-23T19:37:29.310Z,0.70
2022-12-23T19:39:56.494Z,0.82
2022-12-23T19:42:23.678Z,0.70
2022-12-23T19:44:50.904Z,0.63
2022-12-23T19:47:18.101Z,1.17
2022-12-23T19:49:45.292Z,1.45
2022-12-23T19:52:12.477Z,1.83
2022-12-23T19:54:39.676Z,1.10
2022-12-23T19:57:06.928Z,1.40
2022-12-23T19:59:34.120Z,1.23
2022-12-23T20:02:01.368Z,1.40
2022-12-23T20:04:28.660Z,1.63
2022-12-23T20:06:55.876Z,0.70
2022-12-23T20:09:23.205Z,1.88
2022-12-23T20:11:50.457Z,0.88
2022-12-23T20:14:18.315Z,1.05
2022-12-23T20:16:45.549Z,0.70
2022-12-23T20:19:12.772Z,0.70
2022-12-23T20:21:40.081Z,0.60
2022-12-23T20:24:07.600Z,0.80
2022-12-23T20:26:34.766Z,0.50
2022-12-23T20:29:01.984Z,0.70
2022-12-23T20:31:30.714Z,0.68
2022-12-23T20:33:58.218Z,0.65
2022-12-23T20:36:27.279Z,0.70
2022-12-23T20:38:54.684Z,0.90
2022-12-23T20:41:23.449Z,0.63
2022-12-23T20:44:23.435Z,0.60
2022-12-23T20:46:38.017Z,0.70
2022-12-23T20:49:05.379Z,0.60
2022-12-23T20:51:32.706Z,0.60
2022-12-23T20:54:00.831Z,0.80
2022-12-23T20:56:29.324Z,0.80
2022-12-23T20:59:02.466Z,0.80
2022-12-23T21:01:31.596Z,1.02
2022-12-23T21:04:00.151Z,1.00
2022-12-23T21:06:27.817Z,1.10
2022-12-23T21:08:56.416Z,0.90
2022-12-23T21:11:23.727Z,1.00
2022-12-23T21:13:51.076Z,0.90
2022-12-23T21:16:18.654Z,1.10
2022-12-23T21:18:50.415Z,1.15
2022-12-23T21:21:17.718Z,0.80
2022-12-23T21:23:45.364Z,0.80
2022-12-23T21:26:20.145Z,0.70
2022-12-23T21:31:16.122Z,0.90
2022-12-23T21:33:44.069Z,1.10
2022-12-23T21:36:17.887Z,0.70
2022-12-23T21:38:47.851Z,0.57
2022-12-23T21:41:20.126Z,0.70
2022-12-23T21:43:47.824Z,0.82
2022-12-23T21:46:16.343Z,1.20
2022-12-23T21:48:44.384Z,0.80
2022-12-23T21:51:15.899Z,0.98
2022-12-23T21:53:43.846Z,0.88
2022-12-23T21:56:13.360Z,1.00
2022-12-23T21:58:40.835Z,0.88
2022-12-23T22:01:15.466Z,0.90
2022-12-23T22:03:43.630Z,1.10
2022-12-23T22:06:12.850Z,1.70
2022-12-23T22:08:40.064Z,1.40
2022-12-23T22:11:12.392Z,1.40
2022-12-23T22:13:40.126Z,1.25
2022-12-23T22:16:11.844Z,1.40
2022-12-23T22:18:39.266Z,1.17
2022-12-23T22:21:07.982Z,1.17
2022-12-23T22:23:35.888Z,1.45
2022-12-23T22:26:03.389Z,1.35
2022-12-23T22:28:31.770Z,1.55
2022-12-23T22:31:03.689Z,1.30
2022-12-23T22:33:31.721Z,1.38
2022-12-23T22:35:59.002Z,2.40
2022-12-23T22:38:26.551Z,2.40
2022-12-23T22:40:53.961Z,2.13
2022-12-23T22:43:21.175Z,3.75
2022-12-23T22:45:57.146Z,4.28
2022-12-23T22:48:24.985Z,3.55
2022-12-23T22:50:53.710Z,1.98
2022-12-23T22:53:24.921Z,3.35
2022-12-23T22:55:58.122Z,1.50
2022-12-23T22:58:25.670Z,1.80
2022-12-23T23:00:52.947Z,3.83
2022-12-23T23:03:20.287Z,1.30
2022-12-23T23:06:04.644Z,1.40
2022-12-23T23:08:31.898Z,1.63
2022-12-23T23:11:00.211Z,1.60
2022-12-23T23:13:29.123Z,1.40
2022-12-23T23:15:56.499Z,1.70
2022-12-23T23:18:23.809Z,1.70
2022-12-23T23:20:51.031Z,1.70
2022-12-23T23:23:18.291Z,2.13
2022-12-23T23:25:45.646Z,1.65
2022-12-23T23:28:13.446Z,1.30
2022-12-23T23:30:40.741Z,1.35
2022-12-23T23:33:08.096Z,1.42
2022-12-23T23:35:35.633Z,1.20
2022-12-23T23:38:02.852Z,1.08
2022-12-23T23:40:30.077Z,1.10
2022-12-23T23:42:57.260Z,1.17
2022-12-23T23:45:24.568Z,1.50
2022-12-23T23:47:51.769Z,1.00
2022-12-23T23:50:19.062Z,1.50
2022-12-23T23:52:46.234Z,1.00
2022-12-23T23:55:13.477Z,1.10
2022-12-23T23:57:40.677Z,1.15
